createdAt,value
2023-01-17T00:02:36.105Z,9.92
2023-01-17T00:07:56.725Z,9.75
2023-01-17T00:13:03.767Z,9.83
2023-01-17T00:18:06.259Z,9.83
2023-01-17T00:23:32.697Z,9.78
2023-01-17T00:28:40.091Z,9.75
2023-01-17T00:33:42.413Z,9.46
2023-01-17T00:38:44.411Z,9.51
2023-01-17T00:44:04.993Z,9.70
2023-01-17T00:49:26.360Z,9.67
2023-01-17T00:54:46.950Z,9.70
2023-01-17T01:00:07.767Z,9.73
2023-01-17T01:05:29.638Z,9.80
2023-01-17T01:10:51.334Z,9.84
2023-01-17T01:16:12.168Z,9.68
2023-01-17T01:21:32.917Z,9.51
2023-01-17T01:26:53.538Z,9.31
2023-01-17T01:32:13.849Z,9.21
2023-01-17T01:37:15.965Z,9.21
2023-01-17T01:42:18.360Z,9.31
2023-01-17T01:47:29.346Z,9.28
2023-01-17T01:52:33.989Z,9.06
2023-01-17T01:57:42.705Z,9.19
2023-01-17T02:02:47.887Z,8.98
2023-01-17T02:08:17.624Z,9.21
2023-01-17T02:13:21.507Z,9.28
2023-01-17T02:19:00.434Z,9.33
2023-01-17T02:24:40.061Z,9.20
2023-01-17T02:30:11.208Z,9.21
2023-01-17T02:35:16.550Z,8.92
2023-01-17T02:40:26.931Z,9.13
2023-01-17T02:45:29.530Z,9.00
2023-01-17T02:50:56.058Z,9.28
2023-01-17T02:56:08.704Z,9.29
2023-01-17T03:01:38.437Z,9.45
2023-01-17T03:06:47.555Z,9.30
2023-01-17T03:11:49.899Z,9.58
2023-01-17T03:16:52.307Z,9.49
2023-01-17T03:21:54.417Z,9.43
2023-01-17T03:26:56.644Z,9.61
2023-01-17T03:31:58.842Z,9.56
2023-01-17T03:37:00.916Z,9.71
2023-01-17T03:42:02.967Z,9.59
2023-01-17T03:47:05.072Z,9.77
2023-01-17T03:52:07.938Z,9.81
2023-01-17T03:57:10.148Z,9.78
2023-01-17T04:02:12.355Z,9.88
2023-01-17T04:07:14.574Z,9.96
2023-01-17T04:12:16.740Z,9.99
2023-01-17T04:17:20.530Z,9.76
2023-01-17T04:22:22.798Z,10.16
2023-01-17T04:27:24.935Z,9.95
2023-01-17T04:32:27.019Z,9.86
2023-01-17T04:37:29.068Z,9.68
2023-01-17T04:42:31.217Z,9.85
2023-01-17T04:47:36.191Z,10.00
2023-01-17T04:52:38.400Z,9.90
2023-01-17T04:57:40.455Z,9.81
2023-01-17T05:02:42.593Z,9.29
2023-01-17T05:07:44.822Z,9.50
2023-01-17T05:12:54.463Z,9.79
2023-01-17T05:17:56.759Z,9.95
2023-01-17T05:22:59.113Z,10.18
2023-01-17T05:28:01.808Z,10.06
2023-01-17T05:33:04.060Z,9.98
2023-01-17T05:38:06.245Z,9.66
2023-01-17T05:43:09.005Z,9.95
2023-01-17T05:48:11.157Z,10.06
2023-01-17T05:53:16.293Z,10.26
2023-01-17T05:58:21.567Z,10.28
2023-01-17T06:03:23.712Z,10.40
2023-01-17T06:08:25.807Z,10.42
2023-01-17T06:13:27.902Z,10.47
2023-01-17T06:18:31.233Z,10.12
2023-01-17T06:23:33.547Z,10.20
2023-01-17T06:28:36.023Z,10.38
2023-01-17T06:33:38.279Z,10.36
2023-01-17T06:38:40.343Z,10.39
2023-01-17T06:43:42.461Z,10.52
2023-01-17T06:48:44.718Z,10.50
2023-01-17T06:53:48.603Z,10.67
2023-01-17T06:58:51.906Z,10.76
2023-01-17T07:03:54.683Z,10.80
2023-01-17T07:08:57.062Z,10.58
2023-01-17T07:13:59.168Z,10.76
2023-01-17T07:19:01.256Z,10.96
2023-01-17T07:24:03.577Z,11.10
2023-01-17T07:29:06.110Z,11.10
2023-01-17T07:34:08.529Z,11.24
2023-01-17T07:39:10.740Z,10.83
2023-01-17T07:44:13.673Z,11.22
2023-01-17T07:49:15.827Z,11.36
2023-01-17T07:54:17.891Z,11.53
2023-01-17T07:59:20.116Z,11.39
2023-01-17T08:04:25.639Z,11.68
2023-01-17T08:09:28.063Z,11.71
2023-01-17T08:14:30.576Z,12.19
2023-01-17T08:19:32.753Z,12.36
2023-01-17T08:24:35.264Z,12.58
2023-01-17T08:29:37.544Z,12.40
2023-01-17T08:34:39.659Z,12.46
2023-01-17T08:39:41.763Z,12.54
2023-01-17T08:44:44.425Z,12.72
2023-01-17T08:49:46.684Z,12.85
2023-01-17T08:54:48.807Z,13.15
2023-01-17T08:59:50.927Z,13.24
2023-01-17T09:04:53.960Z,13.53
2023-01-17T09:09:56.098Z,13.82
2023-01-17T09:14:58.286Z,13.80
2023-01-17T09:20:00.559Z,13.94
2023-01-17T09:25:02.672Z,14.30
2023-01-17T09:30:05.589Z,14.45
2023-01-17T09:35:09.130Z,14.74
2023-01-17T09:40:23.218Z,14.90
2023-01-17T09:45:28.051Z,14.84
2023-01-17T09:50:33.204Z,14.51
2023-01-17T09:55:40.876Z,14.52
2023-01-17T10:00:51.563Z,14.92
2023-01-17T10:06:11.681Z,15.00
2023-01-17T10:11:39.181Z,14.70
2023-01-17T10:16:50.208Z,14.62
2023-01-17T10:22:02.662Z,14.41
2023-01-17T10:27:26.383Z,14.67
2023-01-17T10:32:32.988Z,14.87
2023-01-17T10:37:44.400Z,14.99
2023-01-17T10:42:54.495Z,15.11
2023-01-17T10:48:35.121Z,14.96
2023-01-17T10:53:57.350Z,15.17
2023-01-17T10:59:38.489Z,15.11
2023-01-17T11:04:45.339Z,14.69
2023-01-17T11:09:53.666Z,14.93
2023-01-17T11:20:43.549Z,14.71
2023-01-17T11:25:58.201Z,14.66
2023-01-17T11:31:24.289Z,14.34
2023-01-17T11:36:30.367Z,14.47
2023-01-17T11:41:35.247Z,14.47
2023-01-17T11:46:38.478Z,14.48
2023-01-17T11:51:43.611Z,14.50
2023-01-17T11:56:46.724Z,14.87
2023-01-17T12:02:16.559Z,15.27
2023-01-17T12:07:46.525Z,15.55
2023-01-17T12:13:19.159Z,15.71
2023-01-17T12:18:37.256Z,15.78
2023-01-17T12:24:02.610Z,16.01
2023-01-17T12:29:07.625Z,15.92
2023-01-17T12:34:24.886Z,15.87
2023-01-17T12:39:36.548Z,15.60
2023-01-17T12:45:06.163Z,15.45
2023-01-17T12:50:38.683Z,15.68
2023-01-17T12:55:46.710Z,15.92
2023-01-17T13:00:58.098Z,16.06
2023-01-17T13:06:03.157Z,16.35
2023-01-17T13:11:18.498Z,16.71
2023-01-17T13:16:30.705Z,17.00
2023-01-17T13:21:35.690Z,16.97
2023-01-17T13:26:50.007Z,16.97
2023-01-17T13:32:15.216Z,17.09
2023-01-17T13:37:19.868Z,17.17
2023-01-17T13:42:45.213Z,17.26
2023-01-17T13:47:47.447Z,17.07
2023-01-17T13:52:49.585Z,17.16
2023-01-17T13:57:51.713Z,17.21
2023-01-17T14:02:55.622Z,17.64
2023-01-17T14:08:12.759Z,18.05
2023-01-17T14:13:37.809Z,18.15
2023-01-17T14:18:43.389Z,18.22
2023-01-17T14:23:50.155Z,18.18
2023-01-17T14:28:53.140Z,18.00
2023-01-17T14:33:55.299Z,17.35
2023-01-17T14:38:57.535Z,17.08
2023-01-17T14:44:01.341Z,16.69
2023-01-17T14:49:06.590Z,16.39
2023-01-17T14:54:22.790Z,16.75
2023-01-17T14:59:25.111Z,16.86
2023-01-17T15:04:40.034Z,16.61
2023-01-17T15:09:45.017Z,16.82
2023-01-17T15:14:47.233Z,16.31
2023-01-17T15:19:54.284Z,16.16
2023-01-17T15:24:57.622Z,16.08
2023-01-17T15:30:02.735Z,15.99
2023-01-17T15:35:08.318Z,16.10
2023-01-17T15:40:20.624Z,16.16
2023-01-17T15:45:33.230Z,15.94
2023-01-17T15:50:36.864Z,15.79
2023-01-17T15:55:40.405Z,16.23
2023-01-17T16:00:44.548Z,16.33
2023-01-17T16:05:47.419Z,16.30
2023-01-17T16:10:55.468Z,16.13
2023-01-17T16:16:32.814Z,15.99
2023-01-17T16:21:35.089Z,15.42
2023-01-17T16:26:37.293Z,15.38
2023-01-17T16:31:39.564Z,14.49
2023-01-17T16:36:41.883Z,14.65
2023-01-17T16:41:44.859Z,14.64
2023-01-17T16:46:47.435Z,14.80
2023-01-17T16:51:50.366Z,14.66
2023-01-17T16:56:53.031Z,14.60
2023-01-17T17:01:55.242Z,14.64
2023-01-17T17:06:57.351Z,14.68
2023-01-17T17:11:59.464Z,14.93
2023-01-17T17:17:01.790Z,15.02
2023-01-17T17:22:06.875Z,14.71
2023-01-17T17:27:09.133Z,14.92
2023-01-17T17:32:11.917Z,15.01
2023-01-17T17:37:16.341Z,15.03
2023-01-17T17:42:20.406Z,15.12
2023-01-17T17:47:24.304Z,14.73
2023-01-17T17:52:26.474Z,14.91
2023-01-17T17:57:28.612Z,14.86
2023-01-17T18:02:31.840Z,15.07
2023-01-17T18:07:34.530Z,15.18
2023-01-17T18:12:36.674Z,14.93
2023-01-17T18:17:38.910Z,14.89
2023-01-17T18:22:42.264Z,14.90
2023-01-17T18:27:45.299Z,14.87
2023-01-17T18:32:50.240Z,15.07
2023-01-17T18:37:52.589Z,14.89
2023-01-17T18:42:55.129Z,14.97
2023-01-17T18:47:57.815Z,14.86
2023-01-17T18:53:00.206Z,15.19
2023-01-17T18:58:02.695Z,15.13
2023-01-17T19:03:06.847Z,15.31
2023-01-17T19:08:10.329Z,15.33
2023-01-17T19:13:12.950Z,15.36
2023-01-17T19:18:15.024Z,15.21
2023-01-17T19:23:17.611Z,14.99
2023-01-17T19:28:19.815Z,15.13
2023-01-17T19:33:22.134Z,15.12
2023-01-17T19:38:24.235Z,15.02
2023-01-17T19:43:26.400Z,14.88
2023-01-17T19:48:28.961Z,14.77
2023-01-17T19:53:31.066Z,14.83
2023-01-17T19:58:34.024Z,14.81
2023-01-17T20:03:38.059Z,14.80
2023-01-17T20:08:40.928Z,14.77
2023-01-17T20:13:43.071Z,14.79
2023-01-17T20:18:45.982Z,14.72
2023-01-17T20:23:50.365Z,14.48
2023-01-17T20:28:53.591Z,14.51
2023-01-17T20:33:56.659Z,14.40
2023-01-17T20:38:59.423Z,14.36
2023-01-17T20:44:02.802Z,14.31
2023-01-17T20:49:07.965Z,14.51
2023-01-17T20:54:14.817Z,14.53
2023-01-17T20:59:19.905Z,14.96
2023-01-17T21:04:26.180Z,14.97
2023-01-17T21:09:28.521Z,14.93
2023-01-17T21:14:30.857Z,15.10
2023-01-17T21:19:32.953Z,15.02
2023-01-17T21:24:35.050Z,15.00
2023-01-17T21:29:37.191Z,15.14
2023-01-17T21:34:39.275Z,15.28
2023-01-17T21:39:41.452Z,15.61
2023-01-17T21:44:45.632Z,15.79
2023-01-17T21:49:48.412Z,16.03
2023-01-17T21:55:09.070Z,15.74
2023-01-17T22:00:16.953Z,15.95
2023-01-17T22:05:19.153Z,15.99
2023-01-17T22:10:21.391Z,16.01
2023-01-17T22:15:23.831Z,16.20
2023-01-17T22:20:26.092Z,16.02
2023-01-17T22:25:28.451Z,15.93
2023-01-17T22:30:30.697Z,15.66
2023-01-17T22:35:32.977Z,15.40
2023-01-17T22:40:38.596Z,15.53
2023-01-17T22:45:40.861Z,15.16
2023-01-17T22:50:43.356Z,15.27
2023-01-17T22:55:45.527Z,14.90
2023-01-17T23:00:47.688Z,15.18
2023-01-17T23:05:49.771Z,15.26
2023-01-17T23:11:10.289Z,15.10
2023-01-17T23:16:30.922Z,14.92
2023-01-17T23:21:52.887Z,14.82
2023-01-17T23:27:13.355Z,14.83
2023-01-17T23:32:15.479Z,14.90
2023-01-17T23:37:17.667Z,14.80
2023-01-17T23:42:38.375Z,15.00
2023-01-17T23:47:40.483Z,15.04
2023-01-17T23:52:42.548Z,15.17
2023-01-17T23:57:45.042Z,15.77
